createdAt,value
2022-11-24T00:01:07.679Z,4.20
2022-11-24T00:03:34.676Z,4.43
2022-11-24T00:06:10.945Z,3.67
2022-11-24T00:08:39.528Z,4.23
2022-11-24T00:11:12.435Z,4.20
2022-11-24T00:13:39.939Z,3.27
2022-11-24T00:16:15.905Z,4.50
2022-11-24T00:18:45.096Z,4.40
2022-11-24T00:21:12.675Z,4.53
2022-11-24T00:23:39.704Z,3.80
2022-11-24T00:26:09.406Z,4.70
2022-11-24T00:28:37.594Z,5.00
2022-11-24T00:31:06.311Z,4.70
2022-11-24T00:33:33.511Z,6.33
2022-11-24T00:36:00.891Z,5.83
2022-11-24T00:38:28.003Z,5.53
2022-11-24T00:40:54.869Z,5.77
2022-11-24T00:43:22.137Z,4.07
2022-11-24T00:45:49.178Z,4.20
2022-11-24T00:48:16.256Z,4.30
2022-11-24T00:50:43.167Z,4.53
2022-11-24T00:53:10.221Z,5.33
2022-11-24T00:55:37.085Z,3.93
2022-11-24T00:58:03.926Z,4.03
2022-11-24T01:00:31.587Z,4.40
2022-11-24T01:02:58.541Z,4.77
2022-11-24T01:05:25.460Z,4.40
2022-11-24T01:07:52.420Z,4.87
2022-11-24T01:10:19.409Z,4.60
2022-11-24T01:12:46.370Z,4.67
2022-11-24T01:15:13.436Z,4.33
2022-11-24T01:17:40.292Z,3.80
2022-11-24T01:20:07.973Z,4.40
2022-11-24T01:22:35.202Z,4.20
2022-11-24T01:25:02.218Z,4.17
2022-11-24T01:27:29.150Z,4.00
2022-11-24T01:29:56.011Z,3.73
2022-11-24T01:32:23.290Z,4.40
2022-11-24T01:34:50.190Z,4.10
2022-11-24T01:37:17.131Z,4.03
2022-11-24T01:39:43.998Z,4.53
2022-11-24T01:42:10.963Z,4.47
2022-11-24T01:44:37.804Z,4.10
2022-11-24T01:47:21.342Z,4.10
2022-11-24T01:49:53.251Z,5.17
2022-11-24T01:52:40.496Z,4.57
2022-11-24T01:55:13.333Z,5.00
2022-11-24T01:57:48.393Z,8.20
2022-11-24T02:00:15.833Z,3.90
2022-11-24T02:02:45.422Z,3.97
2022-11-24T02:05:18.460Z,6.23
2022-11-24T02:07:47.170Z,3.47
2022-11-24T02:10:15.791Z,4.30
2022-11-24T02:12:46.866Z,3.93
2022-11-24T02:15:18.185Z,3.77
2022-11-24T02:17:45.123Z,4.07
2022-11-24T02:20:13.453Z,4.27
2022-11-24T02:22:49.250Z,3.80
2022-11-24T02:25:37.457Z,3.67
2022-11-24T02:28:10.314Z,4.93
2022-11-24T02:30:37.523Z,4.80
2022-11-24T02:33:04.451Z,4.17
2022-11-24T02:35:32.088Z,3.70
2022-11-24T02:37:58.964Z,3.97
2022-11-24T02:40:28.521Z,3.80
2022-11-24T02:43:09.524Z,3.30
2022-11-24T02:45:36.400Z,3.70
2022-11-24T02:48:03.363Z,3.27
2022-11-24T02:50:30.324Z,3.57
2022-11-24T02:52:57.179Z,3.87
2022-11-24T02:55:24.799Z,4.57
2022-11-24T02:57:51.671Z,3.50
2022-11-24T03:00:19.001Z,3.57
2022-11-24T03:02:46.016Z,3.80
2022-11-24T03:05:13.396Z,4.20
2022-11-24T03:07:40.490Z,4.07
2022-11-24T03:10:07.822Z,3.97
2022-11-24T03:12:34.815Z,3.93
2022-11-24T03:15:03.233Z,3.90
2022-11-24T03:17:30.279Z,3.10
2022-11-24T03:20:02.949Z,3.97
2022-11-24T03:22:31.422Z,3.90
2022-11-24T03:24:58.583Z,3.60
2022-11-24T03:27:25.873Z,3.80
2022-11-24T03:29:52.784Z,3.33
2022-11-24T03:32:19.719Z,3.87
2022-11-24T03:34:46.627Z,3.97
2022-11-24T03:37:13.527Z,4.00
2022-11-24T03:39:40.547Z,4.37
2022-11-24T03:42:07.545Z,2.97
2022-11-24T03:44:34.726Z,3.30
2022-11-24T03:47:01.787Z,4.27
2022-11-24T03:49:29.272Z,3.80
2022-11-24T03:51:56.237Z,4.03
2022-11-24T03:54:23.411Z,4.00
2022-11-24T03:56:50.602Z,3.43
2022-11-24T03:59:17.997Z,3.80
2022-11-24T04:01:44.989Z,3.47
2022-11-24T04:04:12.883Z,3.93
2022-11-24T04:06:40.318Z,3.47
2022-11-24T04:09:07.979Z,3.90
2022-11-24T04:12:06.896Z,3.20
2022-11-24T04:14:34.015Z,3.23
2022-11-24T04:17:01.117Z,3.40
2022-11-24T04:19:28.037Z,2.93
2022-11-24T04:21:54.932Z,3.03
2022-11-24T04:24:21.888Z,3.40
2022-11-24T04:26:48.735Z,3.33
2022-11-24T04:29:15.712Z,4.40
2022-11-24T04:31:42.671Z,3.43
2022-11-24T04:34:10.612Z,3.77
2022-11-24T04:36:37.522Z,3.93
2022-11-24T04:39:23.589Z,3.70
2022-11-24T04:41:51.308Z,5.20
2022-11-24T04:44:18.324Z,3.80
2022-11-24T04:46:45.306Z,3.63
2022-11-24T04:49:12.297Z,3.90
2022-11-24T04:51:40.478Z,4.50
2022-11-24T04:54:10.138Z,3.40
2022-11-24T04:56:37.328Z,3.77
2022-11-24T04:59:08.165Z,4.07
2022-11-24T05:01:35.683Z,4.63
2022-11-24T05:04:02.785Z,4.00
2022-11-24T05:06:29.988Z,3.93
2022-11-24T05:08:56.854Z,4.67
2022-11-24T05:11:23.662Z,3.40
2022-11-24T05:13:52.612Z,3.57
2022-11-24T05:16:19.523Z,3.87
2022-11-24T05:18:46.433Z,3.87
2022-11-24T05:21:13.467Z,3.80
2022-11-24T05:23:40.341Z,4.33
2022-11-24T05:26:07.569Z,3.67
2022-11-24T05:28:37.551Z,4.80
2022-11-24T05:31:05.108Z,6.20
2022-11-24T05:33:33.395Z,4.40
2022-11-24T05:36:05.343Z,6.70
2022-11-24T05:38:33.223Z,5.53
2022-11-24T05:41:05.156Z,4.30
2022-11-24T05:43:32.071Z,5.53
2022-11-24T05:46:00.508Z,4.13
2022-11-24T05:48:28.029Z,6.43
2022-11-24T05:50:57.203Z,6.20
2022-11-24T05:53:25.685Z,5.13
2022-11-24T05:55:52.997Z,5.67
2022-11-24T05:58:20.111Z,6.10
2022-11-24T06:00:47.028Z,5.17
2022-11-24T06:03:14.101Z,5.00
2022-11-24T06:05:45.650Z,6.20
2022-11-24T06:08:12.653Z,5.17
2022-11-24T06:10:39.655Z,5.07
2022-11-24T06:13:07.780Z,4.77
2022-11-24T06:15:37.598Z,3.87
2022-11-24T06:18:04.622Z,5.53
2022-11-24T06:20:33.105Z,5.40
2022-11-24T06:23:01.174Z,5.80
2022-11-24T06:25:29.092Z,6.03
2022-11-24T06:27:56.076Z,5.20
2022-11-24T06:30:22.966Z,4.10
2022-11-24T06:32:53.990Z,5.07
2022-11-24T06:35:20.966Z,4.63
2022-11-24T06:37:47.823Z,4.33
2022-11-24T06:40:14.880Z,4.80
2022-11-24T06:42:41.795Z,6.33
2022-11-24T06:45:09.818Z,4.93
2022-11-24T06:47:37.242Z,5.93
2022-11-24T06:50:05.052Z,5.10
2022-11-24T06:52:31.888Z,5.23
2022-11-24T06:54:58.787Z,6.07
2022-11-24T06:57:26.835Z,5.00
2022-11-24T06:59:53.904Z,5.47
2022-11-24T07:02:20.793Z,5.77
2022-11-24T07:04:47.673Z,5.70
2022-11-24T07:07:14.588Z,6.23
2022-11-24T07:09:41.636Z,5.47
2022-11-24T07:12:08.572Z,5.80
2022-11-24T07:14:35.892Z,5.43
2022-11-24T07:17:04.717Z,5.37
2022-11-24T07:19:31.781Z,5.37
2022-11-24T07:21:58.727Z,5.70
2022-11-24T07:24:25.580Z,5.90
2022-11-24T07:26:52.492Z,5.37
2022-11-24T07:29:27.034Z,4.60
2022-11-24T07:31:54.085Z,5.23
2022-11-24T07:34:21.022Z,4.43
2022-11-24T07:36:47.901Z,4.57
2022-11-24T07:39:14.841Z,4.70
2022-11-24T07:41:41.661Z,4.90
2022-11-24T07:44:08.562Z,5.10
2022-11-24T07:46:35.537Z,4.33
2022-11-24T07:49:02.547Z,5.47
2022-11-24T07:51:29.511Z,4.80
2022-11-24T07:53:56.416Z,5.00
2022-11-24T07:56:23.407Z,5.03
2022-11-24T07:58:52.987Z,4.57
2022-11-24T08:01:20.785Z,3.50
2022-11-24T08:03:47.838Z,5.17
2022-11-24T08:06:27.355Z,5.57
2022-11-24T08:08:58.073Z,5.00
2022-11-24T08:11:26.164Z,3.83
2022-11-24T08:13:53.204Z,4.30
2022-11-24T08:16:20.884Z,4.73
2022-11-24T08:18:52.870Z,4.80
2022-11-24T08:21:20.589Z,4.73
2022-11-24T08:23:47.577Z,3.90
2022-11-24T08:26:17.992Z,4.53
2022-11-24T08:28:46.444Z,4.17
2022-11-24T08:31:16.672Z,3.83
2022-11-24T08:33:43.758Z,4.00
2022-11-24T08:36:19.358Z,4.37
2022-11-24T08:38:48.936Z,4.17
2022-11-24T08:41:17.383Z,3.30
2022-11-24T08:43:44.862Z,3.83
2022-11-24T08:46:17.510Z,4.30
2022-11-24T08:48:48.857Z,3.30
2022-11-24T08:51:18.559Z,3.30
2022-11-24T08:53:45.601Z,3.40
2022-11-24T08:56:13.697Z,2.93
2022-11-24T08:58:41.024Z,2.97
2022-11-24T09:01:09.994Z,2.53
2022-11-24T09:03:37.778Z,3.00
2022-11-24T09:06:05.838Z,2.47
2022-11-24T09:08:33.655Z,3.03
2022-11-24T09:11:10.087Z,2.70
2022-11-24T09:13:37.777Z,2.30
2022-11-24T09:16:07.980Z,2.20
2022-11-24T09:18:34.983Z,2.43
2022-11-24T09:21:16.338Z,2.63
2022-11-24T09:23:44.157Z,2.90
2022-11-24T09:26:32.661Z,2.27
2022-11-24T09:29:01.075Z,2.33
2022-11-24T09:31:31.446Z,2.77
2022-11-24T09:33:59.448Z,2.70
2022-11-24T09:36:26.646Z,1.83
2022-11-24T09:38:53.992Z,2.23
2022-11-24T09:41:50.907Z,2.60
2022-11-24T09:44:48.510Z,2.23
2022-11-24T09:47:15.310Z,3.00
2022-11-24T09:49:42.165Z,2.77
2022-11-24T09:52:18.089Z,2.30
2022-11-24T09:55:00.349Z,2.20
2022-11-24T09:57:35.862Z,2.47
2022-11-24T10:00:12.498Z,2.07
2022-11-24T10:02:39.927Z,2.90
2022-11-24T10:05:07.314Z,2.53
2022-11-24T10:07:42.688Z,2.80
2022-11-24T10:10:19.773Z,3.00
2022-11-24T10:13:26.429Z,2.07
2022-11-24T10:16:22.998Z,2.30
2022-11-24T10:19:17.789Z,2.70
2022-11-24T10:22:11.299Z,3.17
2022-11-24T10:24:41.033Z,3.70
2022-11-24T10:27:17.462Z,3.00
2022-11-24T10:29:51.139Z,2.67
2022-11-24T10:32:21.792Z,2.70
2022-11-24T10:34:50.678Z,3.20
2022-11-24T10:37:28.535Z,2.67
2022-11-24T10:40:49.101Z,3.70
2022-11-24T10:43:14.490Z,2.83
2022-11-24T10:45:41.786Z,4.30
2022-11-24T10:48:20.239Z,3.00
2022-11-24T10:50:47.592Z,3.70
2022-11-24T10:53:20.889Z,3.10
2022-11-24T10:55:56.795Z,3.70
2022-11-24T10:58:38.669Z,2.83
2022-11-24T11:01:31.961Z,4.10
2022-11-24T11:04:01.535Z,3.27
2022-11-24T11:06:32.148Z,3.00
2022-11-24T11:09:08.416Z,3.10
2022-11-24T11:11:38.677Z,3.43
2022-11-24T11:14:12.883Z,4.43
2022-11-24T11:16:50.729Z,8.70
2022-11-24T11:19:54.180Z,5.90
2022-11-24T11:22:22.543Z,8.27
2022-11-24T11:25:04.801Z,6.70
2022-11-24T11:27:31.715Z,4.57
2022-11-24T11:35:52.101Z,7.60
2022-11-24T11:38:19.596Z,8.43
2022-11-24T11:40:50.304Z,5.57
2022-11-24T11:43:30.901Z,6.67
2022-11-24T11:46:06.943Z,5.20
2022-11-24T11:48:43.071Z,4.87
2022-11-24T11:51:26.285Z,5.83
2022-11-24T11:54:04.278Z,4.57
2022-11-24T11:56:36.198Z,4.77
2022-11-24T11:59:18.578Z,4.97
2022-11-24T12:02:22.556Z,5.47
2022-11-24T12:04:56.168Z,3.90
2022-11-24T12:08:10.298Z,4.63
2022-11-24T12:10:48.092Z,5.50
2022-11-24T12:13:24.068Z,6.50
2022-11-24T12:15:57.929Z,6.70
2022-11-24T12:18:56.976Z,4.33
2022-11-24T12:21:27.531Z,5.33
2022-11-24T12:24:03.379Z,4.40
2022-11-24T12:26:58.948Z,4.83
2022-11-24T12:29:31.955Z,5.20
2022-11-24T12:32:36.225Z,5.90
2022-11-24T12:35:11.737Z,4.10
2022-11-24T12:38:05.560Z,4.10
2022-11-24T12:40:43.645Z,3.60
2022-11-24T12:43:30.469Z,3.33
2022-11-24T12:46:09.963Z,3.70
2022-11-24T12:49:05.023Z,3.47
2022-11-24T12:51:35.806Z,3.90
2022-11-24T12:54:06.467Z,4.20
2022-11-24T12:56:59.532Z,3.80
2022-11-24T12:59:54.358Z,3.97
2022-11-24T13:02:29.618Z,5.73
2022-11-24T13:05:05.082Z,7.27
2022-11-24T13:07:47.302Z,4.90
2022-11-24T13:10:54.788Z,4.40
2022-11-24T13:13:19.982Z,3.40
2022-11-24T13:16:07.065Z,3.43
2022-11-24T13:18:53.862Z,3.83
2022-11-24T13:21:32.343Z,3.00
2022-11-24T13:24:01.921Z,3.87
2022-11-24T13:26:30.364Z,3.33
2022-11-24T13:29:17.999Z,3.77
2022-11-24T13:31:51.656Z,4.67
2022-11-24T13:34:40.517Z,4.67
2022-11-24T13:37:26.799Z,4.97
2022-11-24T13:40:13.609Z,5.67
2022-11-24T13:43:13.028Z,7.70
2022-11-24T13:45:40.148Z,4.00
2022-11-24T13:48:19.929Z,3.37
2022-11-24T13:50:50.297Z,3.87
2022-11-24T13:53:32.214Z,3.10
2022-11-24T13:56:14.371Z,3.40
2022-11-24T13:58:56.677Z,3.80
2022-11-24T14:01:40.793Z,3.30
2022-11-24T14:04:33.293Z,3.40
2022-11-24T14:07:12.227Z,3.93
2022-11-24T14:09:43.687Z,3.47
2022-11-24T14:12:21.882Z,4.00
2022-11-24T14:14:51.150Z,12.70
2022-11-24T14:17:22.804Z,5.47
2022-11-24T14:19:52.081Z,5.67
2022-11-24T14:22:20.841Z,4.07
2022-11-24T14:24:57.367Z,4.67
2022-11-24T14:27:38.468Z,4.07
2022-11-24T14:30:13.331Z,3.70
2022-11-24T14:32:42.273Z,4.07
2022-11-24T14:35:50.563Z,4.33
2022-11-24T14:38:17.598Z,5.10
2022-11-24T14:40:51.549Z,3.80
2022-11-24T14:43:32.470Z,5.00
2022-11-24T14:46:17.786Z,4.23
2022-11-24T14:48:53.267Z,5.53
2022-11-24T14:51:37.502Z,8.13
2022-11-24T14:54:16.539Z,5.07
2022-11-24T14:57:06.038Z,4.87
2022-11-24T14:59:39.518Z,5.33
2022-11-24T15:02:38.233Z,6.33
2022-11-24T15:05:05.807Z,5.00
2022-11-24T15:07:35.855Z,3.80
2022-11-24T15:10:05.243Z,4.30
2022-11-24T15:12:37.880Z,4.77
2022-11-24T15:15:13.699Z,4.33
2022-11-24T15:18:00.520Z,5.80
2022-11-24T15:20:35.439Z,7.47
2022-11-24T15:23:20.684Z,7.87
2022-11-24T15:25:48.227Z,10.37
2022-11-24T15:28:15.184Z,5.10
2022-11-24T15:30:42.364Z,5.30
2022-11-24T15:33:15.577Z,5.30
2022-11-24T15:35:42.907Z,5.37
2022-11-24T15:38:10.197Z,4.80
2022-11-24T15:40:42.047Z,5.90
2022-11-24T15:43:19.487Z,7.13
2022-11-24T15:45:46.448Z,4.53
2022-11-24T15:48:17.659Z,4.50
2022-11-24T15:50:46.418Z,4.50
2022-11-24T15:53:22.311Z,4.90
2022-11-24T15:55:50.458Z,17.87
2022-11-24T15:58:17.383Z,35.03
2022-11-24T16:00:45.059Z,17.10
2022-11-24T16:03:45.175Z,38.47
2022-11-24T16:05:59.111Z,16.77
2022-11-24T16:08:26.040Z,15.33
2022-11-24T16:10:52.956Z,10.60
2022-11-24T16:13:19.805Z,11.53
2022-11-24T16:15:46.795Z,10.60
2022-11-24T16:18:15.674Z,6.03
2022-11-24T16:20:42.613Z,8.93
2022-11-24T16:23:09.518Z,6.73
2022-11-24T16:25:36.400Z,8.73
2022-11-24T16:28:03.439Z,15.50
2022-11-24T16:30:30.335Z,11.93
2022-11-24T16:32:57.368Z,12.60
2022-11-24T16:35:24.408Z,13.87
2022-11-24T16:37:51.240Z,11.00
2022-11-24T16:40:18.427Z,18.13
2022-11-24T16:42:45.311Z,18.17
2022-11-24T16:45:13.114Z,16.03
2022-11-24T16:47:42.118Z,12.00
2022-11-24T16:50:11.211Z,10.87
2022-11-24T16:52:38.787Z,10.73
2022-11-24T16:55:07.239Z,8.23
2022-11-24T16:57:35.134Z,7.77
2022-11-24T17:00:02.210Z,11.87
2022-11-24T17:02:29.204Z,16.87
2022-11-24T17:04:56.133Z,10.23
2022-11-24T17:07:23.181Z,5.10
2022-11-24T17:09:50.133Z,5.20
2022-11-24T17:12:17.079Z,16.63
2022-11-24T17:14:52.657Z,41.77
2022-11-24T17:17:30.193Z,20.77
2022-11-24T17:19:57.150Z,15.97
2022-11-24T17:22:24.067Z,9.57
2022-11-24T17:24:50.891Z,10.73
2022-11-24T17:27:17.793Z,11.57
2022-11-24T17:29:44.703Z,11.70
2022-11-24T17:32:11.675Z,12.67
2022-11-24T17:34:38.585Z,8.03
2022-11-24T17:37:05.684Z,7.57
2022-11-24T17:39:32.594Z,9.07
2022-11-24T17:41:59.471Z,7.27
2022-11-24T17:44:26.996Z,7.40
2022-11-24T17:46:54.289Z,15.00
2022-11-24T17:49:21.241Z,16.67
2022-11-24T17:51:50.443Z,7.30
2022-11-24T17:54:56.547Z,14.07
2022-11-24T17:57:05.134Z,10.27
2022-11-24T17:59:32.033Z,8.20
2022-11-24T18:01:59.024Z,8.10
2022-11-24T18:04:26.007Z,8.33
2022-11-24T18:06:52.968Z,8.40
2022-11-24T18:09:19.934Z,7.23
2022-11-24T18:11:47.848Z,10.67
2022-11-24T18:14:14.805Z,10.37
2022-11-24T18:16:41.862Z,7.80
2022-11-24T18:19:10.946Z,8.33
2022-11-24T18:21:40.349Z,7.97
2022-11-24T18:24:11.431Z,7.93
2022-11-24T18:26:40.096Z,7.03
2022-11-24T18:29:08.090Z,6.93
2022-11-24T18:31:36.035Z,8.40
2022-11-24T18:34:05.330Z,9.00
2022-11-24T18:36:32.924Z,10.43
2022-11-24T18:39:07.552Z,9.60
2022-11-24T18:41:34.884Z,8.07
2022-11-24T18:44:03.079Z,7.27
2022-11-24T18:46:30.163Z,8.77
2022-11-24T18:48:57.097Z,7.20
2022-11-24T18:51:24.049Z,8.43
2022-11-24T18:53:57.883Z,6.70
2022-11-24T18:56:25.741Z,9.17
2022-11-24T18:58:54.447Z,13.60
2022-11-24T19:01:24.344Z,7.77
2022-11-24T19:03:53.650Z,25.37
2022-11-24T19:06:21.820Z,17.33
2022-11-24T19:08:49.109Z,13.17
2022-11-24T19:11:23.943Z,17.57
2022-11-24T19:13:51.560Z,18.50
2022-11-24T19:16:20.544Z,10.53
2022-11-24T19:18:53.763Z,10.20
2022-11-24T19:21:21.937Z,13.80
2022-11-24T19:23:49.404Z,6.83
2022-11-24T19:26:16.306Z,7.17
2022-11-24T19:28:43.283Z,8.23
2022-11-24T19:31:13.186Z,10.83
2022-11-24T19:33:40.966Z,8.73
2022-11-24T19:36:15.278Z,8.87
2022-11-24T19:38:43.346Z,8.77
2022-11-24T19:41:12.515Z,9.07
2022-11-24T19:43:40.240Z,6.53
2022-11-24T19:46:12.410Z,6.33
2022-11-24T19:48:50.388Z,6.97
2022-11-24T19:51:19.833Z,5.90
2022-11-24T19:53:46.956Z,6.40
2022-11-24T19:56:17.056Z,8.57
2022-11-24T19:58:44.312Z,9.53
2022-11-24T20:01:21.400Z,7.70
2022-11-24T20:03:53.526Z,7.77
2022-11-24T20:06:20.527Z,6.30
2022-11-24T20:08:47.458Z,6.47
2022-11-24T20:11:17.303Z,7.87
2022-11-24T20:13:45.610Z,9.50
2022-11-24T20:16:18.551Z,14.97
2022-11-24T20:18:47.279Z,23.50
2022-11-24T20:21:19.653Z,20.83
2022-11-24T20:23:52.328Z,13.27
2022-11-24T20:26:22.874Z,7.90
2022-11-24T20:28:51.535Z,4.90
2022-11-24T20:31:21.381Z,6.97
2022-11-24T20:33:48.426Z,5.90
2022-11-24T20:36:21.068Z,5.53
2022-11-24T20:38:49.533Z,6.23
2022-11-24T20:41:28.840Z,7.50
2022-11-24T20:43:58.128Z,7.20
2022-11-24T20:46:27.481Z,6.03
2022-11-24T20:48:55.356Z,7.20
2022-11-24T20:51:28.398Z,6.20
2022-11-24T20:53:58.476Z,5.07
2022-11-24T20:56:31.433Z,4.03
2022-11-24T20:58:59.371Z,4.90
2022-11-24T21:01:29.878Z,4.30
2022-11-24T21:03:59.131Z,5.10
2022-11-24T21:06:27.980Z,4.70
2022-11-24T21:09:00.465Z,4.03
2022-11-24T21:11:30.666Z,4.10
2022-11-24T21:13:58.081Z,4.67
2022-11-24T21:16:27.986Z,4.97
2022-11-24T21:19:01.973Z,10.07
2022-11-24T21:21:34.673Z,7.30
2022-11-24T21:24:09.490Z,5.63
2022-11-24T21:26:37.126Z,5.77
2022-11-24T21:29:04.962Z,6.07
2022-11-24T21:31:36.873Z,4.87
2022-11-24T21:34:05.337Z,4.57
2022-11-24T21:36:34.083Z,5.33
2022-11-24T21:39:02.148Z,7.27
2022-11-24T21:41:31.811Z,12.27
2022-11-24T21:43:58.760Z,12.10
2022-11-24T21:46:25.677Z,17.00
2022-11-24T21:48:52.598Z,23.13
2022-11-24T21:51:20.711Z,11.97
2022-11-24T21:53:48.098Z,12.00
2022-11-24T21:56:17.854Z,14.07
2022-11-24T21:58:47.189Z,16.57
2022-11-24T22:01:16.047Z,12.53
2022-11-24T22:03:43.675Z,15.27
2022-11-24T22:06:10.858Z,10.80
2022-11-24T22:08:38.145Z,13.70
2022-11-24T22:11:14.997Z,13.00
2022-11-24T22:13:42.976Z,80.67
2022-11-24T22:16:15.779Z,28.47
2022-11-24T22:18:44.166Z,20.20
2022-11-24T22:21:13.855Z,19.20
2022-11-24T22:23:41.114Z,11.33
2022-11-24T22:26:12.818Z,10.27
2022-11-24T22:28:40.343Z,10.23
2022-11-24T22:31:19.278Z,12.60
2022-11-24T22:33:47.047Z,10.17
2022-11-24T22:36:15.791Z,8.83
2022-11-24T22:38:43.051Z,10.53
2022-11-24T22:41:12.837Z,11.40
2022-11-24T22:43:41.333Z,14.90
2022-11-24T22:46:13.466Z,16.10
2022-11-24T22:48:41.128Z,15.40
2022-11-24T22:51:13.634Z,12.73
2022-11-24T22:53:41.856Z,12.10
2022-11-24T22:56:10.864Z,10.37
2022-11-24T22:58:39.324Z,11.00
2022-11-24T23:01:07.612Z,10.70
2022-11-24T23:03:35.325Z,10.30
2022-11-24T23:06:04.055Z,10.37
2022-11-24T23:08:33.820Z,8.53
2022-11-24T23:11:07.005Z,10.30
2022-11-24T23:13:34.243Z,10.27
2022-11-24T23:16:06.771Z,9.90
2022-11-24T23:18:34.360Z,7.90
2022-11-24T23:21:19.126Z,7.13
2022-11-24T23:23:46.828Z,6.80
2022-11-24T23:26:16.317Z,6.93
2022-11-24T23:28:43.516Z,7.50
2022-11-24T23:31:13.698Z,7.13
2022-11-24T23:33:41.041Z,7.27
2022-11-24T23:36:13.199Z,6.90
2022-11-24T23:38:40.780Z,7.33
2022-11-24T23:41:10.807Z,6.80
2022-11-24T23:43:39.733Z,6.87
2022-11-24T23:46:08.198Z,6.37
2022-11-24T23:48:35.733Z,6.90
2022-11-24T23:51:12.277Z,7.00
2022-11-24T23:53:39.392Z,6.47
2022-11-24T23:56:06.781Z,6.60
2022-11-24T23:58:34.162Z,5.83
